Latest Coastal Weather Observations for East Point

IDD60701

Issued at 7:41 pm CST Friday 1 March 2024 (issued every 10 minutes, with the page automatically refreshed every 10 minutes)

About coastal observations | Map of coastal stations | Coastal observations for NT | Marine services | Other Formats
Station Details ID: 014318 Name: EAST POINT Lat: -12.41 Lon: 130.83 Height: 7.08 m
Data from the previous 72 hours. | See also: Recent months for locations in Northern Territory
Date/Time
CST
Wind Sea
Height
m
Swell Vis
km
Cloud Weather Temp
°C
Press
MSL
hPa
Rain since
9am
mm
Dir  Spd
kts
Gust
kts
Height
m
Period
s
Dir
01/07:30pm W 2 5 - - - - 10 Partly cloudy - 29.1 1007.4 0.0
01/07:00pm WNW 3 5 - - - - 10 - - 29.0 1007.3 0.0
01/06:30pm WNW 4 9 - - - - 10 - - 29.4 1006.7 0.0
01/06:00pm NW 3 6 - - - - 10 Partly cloudy - 30.0 1006.5 0.0
01/05:30pm NW 3 6 - - - - 10 - - 30.4 1006.3 0.0
01/05:00pm NNW 3 5 - - - - 10 - - 30.7 1006.4 0.0
01/04:30pm NNW 3 5 - - - - 10 - - 31.1 1006.4 0.0
01/04:00pm NNW 3 5 - - - - 10 - - 31.4 1006.5 0.0
01/03:30pm N 3 6 - - - - 10 - - 31.9 1006.3 0.0
01/03:00pm NNW 3 6 - - - - 10 - - 32.0 1006.6 0.0
01/02:30pm NNW 5 7 - - - - 10 - - 31.4 1007.0 0.0
01/02:00pm NNW 5 8 - - - - 10 - - 31.7 1007.5 0.0
01/01:30pm N 5 8 - - - - 10 - - 31.8 1008.2 0.0
01/01:00pm N 5 9 - - - - 10 - - 31.3 1008.7 0.0
01/12:30pm N 6 10 - - - - 10 - - 31.2 1009.1 0.0
01/12:00pm NNE 6 10 - - - - 10 Partly cloudy - 30.9 1009.7 0.0
01/11:30am N 6 10 - - - - 10 Partly cloudy - 31.3 1010.2 0.0
01/11:00am N 4 8 - - - - 10 Partly cloudy - 31.1 1010.5 0.0
01/10:30am N 3 6 - - - - 10 Partly cloudy - 30.8 1010.5 0.0
01/10:00am N 4 7 - - - - 10 Partly cloudy - 30.6 1010.4 0.0
01/09:30am N 4 6 - - - - 10 Partly cloudy - 30.7 1010.4 0.0
01/09:00am NNE 2 4 - - - - 10 Partly cloudy - 30.5 1010.2 0.6
01/08:30am E 2 3 - - - - 10 Partly cloudy - 29.2 1010.0 0.6
01/08:00am SSW 1 2 - - - - 10 Partly cloudy - 28.3 1009.8 0.6
01/07:30am W 4 7 - - - - 10 Cloudy - 28.2 1009.5 0.6
01/07:00am NNW 3 5 - - - - 10 Partly cloudy - 27.6 1009.1 0.6
01/06:30am NW 3 4 - - - - 10 Partly cloudy - 27.1 1008.9 0.6
01/06:00am CALM 0 0 - - - - 10 Partly cloudy - 26.8 1008.7 0.6
01/05:30am NNW 1 2 - - - - 10 - - 26.9 1008.4 0.6
01/05:01am WNW 2 4 - - - - 10 Partly cloudy - 26.8 1008.1 0.6
01/05:00am WNW 2 4 - - - - 10 Partly cloudy - 26.9 1008.1 0.6
01/04:45am W 5 9 - - - - 7 Partly cloudy - 27.7 1007.9 0.4
01/04:30am NW 3 7 - - - - 10 Partly cloudy - 28.6 1007.8 0.0
01/04:00am WNW 3 6 - - - - 10 Partly cloudy - 28.3 1007.8 0.0
01/03:30am WNW 3 5 - - - - 10 Partly cloudy - 28.3 1007.6 0.0
01/03:00am NW 3 4 - - - - 10 Partly cloudy - 28.4 1007.9 0.0
01/02:30am WNW 3 6 - - - - 10 Partly cloudy - 28.4 1008.2 0.0
01/02:00am WNW 2 4 - - - - 10 Partly cloudy - 28.5 1008.3 0.0
01/01:30am WNW 3 5 - - - - 10 Partly cloudy - 28.8 1008.3 0.0
01/01:00am NW 4 7 - - - - 10 Partly cloudy - 28.7 1008.6 0.0
01/12:30am NW 3 7 - - - - 10 Partly cloudy - 28.8 1009.0 0.0
01/12:00am NW 6 10 - - - - 10 Partly cloudy - 29.2 1009.2 0.0
 
Date/Time
CST
Wind Sea
Height
m
Swell Vis
km
Cloud Weather Temp
°C
Press
MSL
hPa
Rain since
9am
mm
Dir  Spd
kts
Gust
kts
Height
m
Period
s
Dir
29/11:30pm NW 4 8 - - - - 10 Partly cloudy - 29.1 1009.3 0.0
29/11:00pm NNW 2 5 - - - - 10 Partly cloudy - 28.7 1009.2 0.0
29/10:30pm NNW 3 4 - - - - 10 - - 28.3 1009.0 0.0
29/10:00pm NW 3 4 - - - - 10 - - 28.4 1009.1 0.0
29/09:30pm NW 2 3 - - - - 10 Partly cloudy - 28.4 1009.2 0.0
29/09:00pm NW 3 6 - - - - 10 Partly cloudy - 28.4 1008.6 0.0
29/08:30pm NNW 2 5 - - - - 10 Partly cloudy - 28.2 1008.4 0.0
29/08:00pm NW 4 7 - - - - 10 Partly cloudy - 28.1 1008.1 0.0
29/07:30pm NW 6 10 - - - - 10 Partly cloudy - 28.2 1008.1 0.0
29/07:00pm WNW 8 17 - - - - 10 Partly cloudy - 28.4 1007.4 0.0
29/06:30pm WNW 7 18 - - - - 10 Partly cloudy - 29.1 1007.1 0.0
29/06:00pm W 6 11 - - - - 10 Partly cloudy - 29.4 1006.7 0.0
29/05:30pm W 6 11 - - - - 10 Partly cloudy - 29.8 1006.5 0.0
29/05:00pm NW 4 10 - - - - 10 - - 30.8 1006.4 0.0
29/04:30pm N 5 9 - - - - 10 - - 31.5 1006.2 0.0
29/04:00pm N 8 12 - - - - 10 Partly cloudy - 31.2 1006.2 0.0
29/03:30pm N 6 10 - - - - 10 - - 32.3 1006.6 0.0
29/03:00pm N 5 9 - - - - 10 - - 31.7 1006.7 0.0
29/02:30pm N 5 8 - - - - 10 - - 31.9 1007.2 0.0
29/02:00pm N 5 9 - - - - 10 - - 32.0 1007.5 0.0
29/01:30pm NNW 4 8 - - - - 10 - - 31.6 1007.8 0.0
29/01:00pm N 5 7 - - - - 10 - - 31.3 1008.8 0.0
29/12:30pm N 6 9 - - - - 10 - - 31.2 1009.3 0.0
29/12:00pm N 6 9 - - - - 10 - - 31.2 1009.4 0.0
29/11:30am NNE 6 9 - - - - 10 Partly cloudy - 31.4 1009.5 0.0
29/11:00am N 7 11 - - - - 10 Partly cloudy - 31.0 1009.7 0.0
29/10:30am N 5 8 - - - - 10 Partly cloudy - 31.5 1009.7 0.0
29/10:00am N 6 9 - - - - 10 Partly cloudy - 30.6 1009.7 0.0
29/09:30am N 4 8 - - - - 10 Partly cloudy - 30.5 1009.6 0.0
29/09:00am N 5 8 - - - - 10 Partly cloudy - 30.2 1009.6 0.0
29/08:30am N 5 9 - - - - 10 Partly cloudy - 29.8 1009.4 0.0
29/08:00am N 5 9 - - - - 10 Partly cloudy - 29.2 1009.1 0.0
29/07:30am N 6 8 - - - - 10 Partly cloudy - 28.9 1008.6 0.0
29/07:00am NNW 4 7 - - - - 10 Partly cloudy - 28.6 1008.3 0.0
29/06:30am NNW 4 8 - - - - 10 Partly cloudy - 28.6 1008.2 0.0
29/06:00am N 4 7 - - - - 10 Partly cloudy - 28.6 1008.0 0.0
29/05:30am N 5 8 - - - - 10 Partly cloudy - 28.6 1008.0 0.0
29/05:00am N 5 8 - - - - 10 Partly cloudy - 28.6 1007.7 0.0
29/04:30am NNW 4 8 - - - - 10 Partly cloudy - 28.6 1007.6 0.0
29/04:00am NNW 4 9 - - - - 10 Partly cloudy - 28.6 1007.4 0.0
29/03:30am NNW 4 8 - - - - 10 Partly cloudy - 28.5 1007.4 0.0
29/03:00am NW 4 9 - - - - 10 Partly cloudy - 28.6 1007.4 0.0
29/02:30am NNW 4 8 - - - - 10 Partly cloudy - 28.7 1007.7 0.0
29/02:00am NNW 4 6 - - - - 10 Partly cloudy - 28.8 1007.9 0.0
29/01:30am NNW 4 7 - - - - 10 Partly cloudy - 28.9 1008.1 0.0
29/01:00am NNW 5 8 - - - - 10 Partly cloudy - 29.0 1008.5 0.0
29/12:30am NNW 6 9 - - - - 10 Partly cloudy - 29.1 1008.4 0.0
29/12:00am NNW 5 9 - - - - 10 Partly cloudy - 29.2 1008.5 0.0
 
Date/Time
CST
Wind Sea
Height
m
Swell Vis
km
Cloud Weather Temp
°C
Press
MSL
hPa
Rain since
9am
mm
Dir  Spd
kts
Gust
kts
Height
m
Period
s
Dir
28/11:30pm NW 5 11 - - - - 10 Partly cloudy - 29.3 1008.4 0.0
28/11:00pm NW 5 9 - - - - 10 Partly cloudy - 29.4 1008.7 0.0
28/10:30pm NW 6 10 - - - - 10 Partly cloudy - 29.4 1008.6 0.0
28/10:00pm NW 6 13 - - - - 10 Partly cloudy - 29.4 1008.4 0.0
28/09:30pm WNW 5 10 - - - - 10 - - 29.3 1008.1 0.0
28/09:00pm WNW 6 11 - - - - 10 - - 29.3 1007.7 0.0
28/08:30pm WNW 5 9 - - - - 10 Partly cloudy - 29.4 1007.2 0.0
28/08:00pm WNW 4 7 - - - - 10 Partly cloudy - 29.4 1006.9 0.0
28/07:30pm W 3 6 - - - - 10 - - 29.4 1006.5 0.0
28/07:00pm WNW 4 9 - - - - 10 - - 29.4 1006.8 0.0
28/06:30pm W 5 10 - - - - 10 - - 29.9 1006.8 0.0
28/06:00pm W 5 10 - - - - 10 - - 29.9 1006.2 0.0
28/05:30pm WNW 6 10 - - - - 10 Partly cloudy - 30.1 1006.0 0.0
28/05:00pm W 6 12 - - - - 10 Partly cloudy - 30.6 1006.0 0.0
28/04:30pm W 5 11 - - - - 10 - - 31.7 1005.6 0.0
28/04:00pm WNW 6 11 - - - - 10 - - 32.1 1005.5 0.0
28/03:30pm NW 7 10 - - - - 10 - - 31.5 1005.5 0.0
28/03:00pm NW 6 12 - - - - 10 Partly cloudy - 31.6 1005.8 0.0
28/02:30pm NW 6 14 - - - - 10 Partly cloudy - 31.8 1006.3 0.0
28/02:00pm NW 5 9 - - - - 10 Partly cloudy - 31.8 1006.5 0.0
28/01:30pm NNW 6 10 - - - - 10 - - 31.4 1006.8 0.0
28/01:00pm NNW 5 9 - - - - 10 - - 31.5 1007.3 0.0
28/12:30pm NNW 5 9 - - - - 10 - - 31.2 1007.6 0.0
28/12:00pm NNW 5 9 - - - - 10 Partly cloudy - 31.2 1008.1 0.0
28/11:30am NNW 6 11 - - - - 10 - - 30.8 1008.3 0.0
28/11:00am NNW 6 11 - - - - 10 Partly cloudy - 31.1 1008.5 0.0
28/10:30am NNW 5 11 - - - - 10 Partly cloudy - 30.8 1008.4 0.0
28/10:00am NNW 5 10 - - - - 10 Partly cloudy - 30.3 1008.3 0.0
28/09:30am N 5 9 - - - - 10 Partly cloudy - 30.1 1008.3 0.0
28/09:00am NNW 6 10 - - - - 10 Partly cloudy - 29.8 1008.2 0.0
28/08:30am NNW 5 10 - - - - 10 Partly cloudy - 29.6 1008.2 0.0
28/08:00am NNW 5 9 - - - - 10 Partly cloudy - 28.6 1007.8 0.0
28/07:30am NNW 6 12 - - - - 10 Partly cloudy - 28.6 1007.4 0.0
28/07:00am NNW 6 11 - - - - 10 Partly cloudy - 28.5 1007.1 0.0
28/06:30am NNW 6 10 - - - - 10 Partly cloudy - 28.4 1006.9 0.0
28/06:00am N 6 10 - - - - 10 Partly cloudy - 28.3 1006.6 0.0
28/05:30am NNW 4 7 - - - - 10 Partly cloudy - 28.2 1006.5 0.0
28/05:00am NNW 6 10 - - - - 10 Partly cloudy - 28.4 1006.3 0.0
28/04:30am NNW 4 8 - - - - 10 Partly cloudy - 28.4 1006.1 0.0
28/04:00am NNW 4 7 - - - - 10 Partly cloudy - 28.3 1006.1 0.0
28/03:30am NNW 4 6 - - - - 10 Partly cloudy - 28.1 1006.2 0.0
28/03:00am NNW 4 7 - - - - 10 Partly cloudy - 28.4 1006.4 0.0
28/02:30am NNW 4 7 - - - - 10 Partly cloudy - 28.4 1006.3 0.0
28/02:00am NNW 4 8 - - - - 10 Partly cloudy - 28.4 1006.4 0.0
28/01:30am NW 3 6 - - - - 10 Partly cloudy - 28.4 1007.1 0.0
28/01:00am NW 3 6 - - - - 10 - - 28.5 1007.3 0.0
28/12:30am NW 5 8 - - - - 10 Partly cloudy - 28.6 1007.7 0.0
28/12:00am NW 4 7 - - - - 10 Partly cloudy - 28.6 1007.6 0.0
 
Date/Time
CST
Wind Sea
Height
m
Swell Vis
km
Cloud Weather Temp
°C
Press
MSL
hPa
Rain since
9am
mm
Dir  Spd
kts
Gust
kts
Height
m
Period
s
Dir
27/11:30pm WNW 4 8 - - - - 10 - - 28.6 1007.6 0.0
27/11:00pm WNW 4 7 - - - - 10 Partly cloudy - 28.6 1007.5 0.0
27/10:30pm WNW 4 8 - - - - 10 Partly cloudy - 28.7 1007.3 0.0
27/10:00pm WNW 5 10 - - - - 10 Partly cloudy - 28.8 1007.0 0.0
27/09:30pm WNW 5 9 - - - - 10 Partly cloudy - 28.9 1007.0 0.0
27/09:00pm WNW 3 7 - - - - 10 Partly cloudy - 28.7 1006.6 0.0
27/08:30pm NW 3 6 - - - - 10 Partly cloudy - 28.6 1006.5 0.0
27/08:00pm NW 4 7 - - - - 10 Partly cloudy - 28.6 1006.0 0.0

Other formats

Comma delimited format used in spreadsheet applications
http://www.bom.gov.au/fwo/IDD60701/IDD60701.94002.axf

JavaScript Object Notation format (JSON) in row-major order
http://www.bom.gov.au/fwo/IDD60701/IDD60701.94002.json

Data quality

Most of these data are generated automatically and are frequently updated. Quality checks on data are not normally performed. It is possible for incorrect values to appear. Refer to information at About Latest Weather Observations and please check the disclaimer before using these data.